Airport View

Enter AWOS ICAO identifier for current METAR.

ex. KFNL

KTTN 261153Z 32003KT 10SM CLR 23/17 A3005 RMK AO2 SLP169 T02280167 10228 20183 51022

26 Jun 2019 12:45

Frequency: 126.775

Phone: 609-538-8690

Other Area AWOS: KDYL - KPNE - KWRI - KVAY

TAF KTTN 261124Z 2612/2712 31004KT P6SM SCT250 FM261600 27006KT P6SM FEW050 FM270100 VRB03KT P6SM SCT050